sensor_id;sensor_type;location;lat;lon;timestamp;temperature;humidity
43541;DHT22;29549;40.386;-3.710;2024-01-25T00:00:45;10.20;79.00
43541;DHT22;29549;40.386;-3.710;2024-01-25T00:10:46;10.10;79.20
43541;DHT22;29549;40.386;-3.710;2024-01-25T00:20:47;10.00;79.20
43541;DHT22;29549;40.386;-3.710;2024-01-25T00:30:50;9.80;79.20
43541;DHT22;29549;40.386;-3.710;2024-01-25T00:40:51;9.80;79.00
43541;DHT22;29549;40.386;-3.710;2024-01-25T00:50:53;9.70;79.10
43541;DHT22;29549;40.386;-3.710;2024-01-25T01:00:54;9.50;79.10
43541;DHT22;29549;40.386;-3.710;2024-01-25T01:10:55;9.50;79.10
43541;DHT22;29549;40.386;-3.710;2024-01-25T01:20:56;9.40;79.00
43541;DHT22;29549;40.386;-3.710;2024-01-25T01:30:59;9.30;78.90
43541;DHT22;29549;40.386;-3.710;2024-01-25T01:41:00;9.20;79.00
43541;DHT22;29549;40.386;-3.710;2024-01-25T01:51:01;9.10;79.20
43541;DHT22;29549;40.386;-3.710;2024-01-25T02:01:02;9.10;79.40
43541;DHT22;29549;40.386;-3.710;2024-01-25T02:11:03;9.00;79.40
43541;DHT22;29549;40.386;-3.710;2024-01-25T02:21:24;8.90;79.10
43541;DHT22;29549;40.386;-3.710;2024-01-25T02:31:45;8.70;78.50
43541;DHT22;29549;40.386;-3.710;2024-01-25T02:41:46;8.50;78.40
43541;DHT22;29549;40.386;-3.710;2024-01-25T02:51:47;8.40;78.70
43541;DHT22;29549;40.386;-3.710;2024-01-25T03:01:48;8.30;78.40
43541;DHT22;29549;40.386;-3.710;2024-01-25T03:11:49;8.20;78.70
43541;DHT22;29549;40.386;-3.710;2024-01-25T03:21:51;8.20;79.00
43541;DHT22;29549;40.386;-3.710;2024-01-25T03:31:54;8.20;79.10
43541;DHT22;29549;40.386;-3.710;2024-01-25T03:41:55;8.20;79.10
43541;DHT22;29549;40.386;-3.710;2024-01-25T03:51:56;8.10;78.60
43541;DHT22;29549;40.386;-3.710;2024-01-25T04:01:57;7.90;78.60
43541;DHT22;29549;40.386;-3.710;2024-01-25T04:11:59;7.80;78.70
43541;DHT22;29549;40.386;-3.710;2024-01-25T04:22:00;7.80;78.80
43541;DHT22;29549;40.386;-3.710;2024-01-25T04:32:02;7.80;78.70
43541;DHT22;29549;40.386;-3.710;2024-01-25T04:42:03;7.70;78.60
43541;DHT22;29549;40.386;-3.710;2024-01-25T04:52:04;7.60;78.50
43541;DHT22;29549;40.386;-3.710;2024-01-25T05:02:05;7.70;78.40
43541;DHT22;29549;40.386;-3.710;2024-01-25T05:12:06;7.60;78.50
43541;DHT22;29549;40.386;-3.710;2024-01-25T05:22:07;7.60;78.70
43541;DHT22;29549;40.386;-3.710;2024-01-25T05:32:10;7.60;78.70
43541;DHT22;29549;40.386;-3.710;2024-01-25T05:42:11;7.70;78.50
43541;DHT22;29549;40.386;-3.710;2024-01-25T05:52:13;7.80;78.10
43541;DHT22;29549;40.386;-3.710;2024-01-25T06:02:14;7.70;78.30
43541;DHT22;29549;40.386;-3.710;2024-01-25T06:12:15;7.60;78.10
43541;DHT22;29549;40.386;-3.710;2024-01-25T06:22:16;7.40;77.90
43541;DHT22;29549;40.386;-3.710;2024-01-25T06:32:19;7.40;78.00
43541;DHT22;29549;40.386;-3.710;2024-01-25T06:42:20;7.30;77.90
43541;DHT22;29549;40.386;-3.710;2024-01-25T06:52:22;7.20;78.00
43541;DHT22;29549;40.386;-3.710;2024-01-25T07:02:23;7.20;78.40
43541;DHT22;29549;40.386;-3.710;2024-01-25T07:12:25;7.20;78.40
43541;DHT22;29549;40.386;-3.710;2024-01-25T07:22:26;7.10;78.50
43541;DHT22;29549;40.386;-3.710;2024-01-25T07:32:28;7.10;78.10
43541;DHT22;29549;40.386;-3.710;2024-01-25T07:42:29;7.00;77.90
43541;DHT22;29549;40.386;-3.710;2024-01-25T07:52:30;7.00;78.20
43541;DHT22;29549;40.386;-3.710;2024-01-25T08:02:32;7.00;78.50
43541;DHT22;29549;40.386;-3.710;2024-01-25T08:12:33;7.20;78.50
43541;DHT22;29549;40.386;-3.710;2024-01-25T08:22:34;7.30;78.30
43541;DHT22;29549;40.386;-3.710;2024-01-25T08:32:37;7.40;78.10
43541;DHT22;29549;40.386;-3.710;2024-01-25T08:42:40;7.70;77.80
43541;DHT22;29549;40.386;-3.710;2024-01-25T08:52:41;8.00;77.40
43541;DHT22;29549;40.386;-3.710;2024-01-25T09:02:42;8.10;76.40
43541;DHT22;29549;40.386;-3.710;2024-01-25T09:12:43;8.20;75.40
43541;DHT22;29549;40.386;-3.710;2024-01-25T09:22:44;8.30;75.30
43541;DHT22;29549;40.386;-3.710;2024-01-25T09:32:45;8.70;75.00
43541;DHT22;29549;40.386;-3.710;2024-01-25T09:42:48;9.00;74.70
43541;DHT22;29549;40.386;-3.710;2024-01-25T09:52:54;9.30;74.30
43541;DHT22;29549;40.386;-3.710;2024-01-25T10:02:57;9.70;73.40
43541;DHT22;29549;40.386;-3.710;2024-01-25T10:12:59;10.10;72.90
43541;DHT22;29549;40.386;-3.710;2024-01-25T10:23:01;10.30;72.50
43541;DHT22;29549;40.386;-3.710;2024-01-25T10:33:03;10.90;71.70
43541;DHT22;29549;40.386;-3.710;2024-01-25T10:43:07;11.40;70.30
43541;DHT22;29549;40.386;-3.710;2024-01-25T10:53:11;11.80;69.40
43541;DHT22;29549;40.386;-3.710;2024-01-25T11:03:14;12.20;68.70
43541;DHT22;29549;40.386;-3.710;2024-01-25T11:13:16;12.60;67.20
43541;DHT22;29549;40.386;-3.710;2024-01-25T11:23:17;12.80;66.00
43541;DHT22;29549;40.386;-3.710;2024-01-25T11:33:18;13.10;65.10
43541;DHT22;29549;40.386;-3.710;2024-01-25T11:43:20;13.40;64.50
43541;DHT22;29549;40.386;-3.710;2024-01-25T11:53:21;13.70;64.20
43541;DHT22;29549;40.386;-3.710;2024-01-25T12:03:24;14.10;63.80
43541;DHT22;29549;40.386;-3.710;2024-01-25T12:13:26;14.20;64.80
43541;DHT22;29549;40.386;-3.710;2024-01-25T12:23:40;14.40;64.60
43541;DHT22;29549;40.386;-3.710;2024-01-25T12:33:42;14.70;63.20
43541;DHT22;29549;40.386;-3.710;2024-01-25T12:43:43;14.80;63.30
43541;DHT22;29549;40.386;-3.710;2024-01-25T12:53:44;14.90;63.30
43541;DHT22;29549;40.386;-3.710;2024-01-25T13:03:45;15.10;62.90
43541;DHT22;29549;40.386;-3.710;2024-01-25T13:13:50;15.20;61.80
43541;DHT22;29549;40.386;-3.710;2024-01-25T13:23:53;15.30;61.70
43541;DHT22;29549;40.386;-3.710;2024-01-25T13:33:57;15.50;61.60
43541;DHT22;29549;40.386;-3.710;2024-01-25T13:44:00;15.60;62.30
43541;DHT22;29549;40.386;-3.710;2024-01-25T13:54:04;15.70;62.40
43541;DHT22;29549;40.386;-3.710;2024-01-25T14:04:06;15.80;62.90
43541;DHT22;29549;40.386;-3.710;2024-01-25T14:14:09;15.80;62.90
43541;DHT22;29549;40.386;-3.710;2024-01-25T14:24:12;15.80;62.40
43541;DHT22;29549;40.386;-3.710;2024-01-25T14:34:15;15.90;61.60
43541;DHT22;29549;40.386;-3.710;2024-01-25T14:44:18;16.00;60.50
43541;DHT22;29549;40.386;-3.710;2024-01-25T14:54:19;16.10;60.20
43541;DHT22;29549;40.386;-3.710;2024-01-25T15:04:20;16.20;59.70
43541;DHT22;29549;40.386;-3.710;2024-01-25T15:14:21;16.20;59.60
43541;DHT22;29549;40.386;-3.710;2024-01-25T15:24:22;16.10;60.20
43541;DHT22;29549;40.386;-3.710;2024-01-25T15:34:25;15.90;61.30
43541;DHT22;29549;40.386;-3.710;2024-01-25T15:44:28;15.90;61.90
43541;DHT22;29549;40.386;-3.710;2024-01-25T15:54:31;15.80;62.60
43541;DHT22;29549;40.386;-3.710;2024-01-25T16:04:32;15.80;62.50
43541;DHT22;29549;40.386;-3.710;2024-01-25T16:14:35;15.70;63.10
43541;DHT22;29549;40.386;-3.710;2024-01-25T16:24:38;15.70;63.00
43541;DHT22;29549;40.386;-3.710;2024-01-25T16:34:39;15.60;62.90
43541;DHT22;29549;40.386;-3.710;2024-01-25T16:44:43;15.70;63.60
43541;DHT22;29549;40.386;-3.710;2024-01-25T16:54:44;15.70;63.10
43541;DHT22;29549;40.386;-3.710;2024-01-25T17:04:45;15.50;63.90
43541;DHT22;29549;40.386;-3.710;2024-01-25T17:14:46;15.40;64.70
43541;DHT22;29549;40.386;-3.710;2024-01-25T17:24:49;15.30;65.80
43541;DHT22;29549;40.386;-3.710;2024-01-25T17:34:51;15.30;66.70
43541;DHT22;29549;40.386;-3.710;2024-01-25T17:44:54;15.20;67.20
43541;DHT22;29549;40.386;-3.710;2024-01-25T17:54:55;15.20;67.90
43541;DHT22;29549;40.386;-3.710;2024-01-25T18:04:59;15.40;67.80
43541;DHT22;29549;40.386;-3.710;2024-01-25T18:15:02;15.50;70.80
43541;DHT22;29549;40.386;-3.710;2024-01-25T18:25:04;15.80;67.10
43541;DHT22;29549;40.386;-3.710;2024-01-25T18:35:07;16.70;65.60
43541;DHT22;29549;40.386;-3.710;2024-01-25T18:45:08;15.70;66.40
43541;DHT22;29549;40.386;-3.710;2024-01-25T18:55:12;14.70;69.50
43541;DHT22;29549;40.386;-3.710;2024-01-25T19:05:15;14.30;71.00
43541;DHT22;29549;40.386;-3.710;2024-01-25T19:15:19;14.00;72.20
43541;DHT22;29549;40.386;-3.710;2024-01-25T19:25:22;13.80;72.70
43541;DHT22;29549;40.386;-3.710;2024-01-25T19:35:24;13.80;72.50
43541;DHT22;29549;40.386;-3.710;2024-01-25T19:45:29;13.60;73.20
43541;DHT22;29549;40.386;-3.710;2024-01-25T19:55:30;13.20;74.20
43541;DHT22;29549;40.386;-3.710;2024-01-25T20:05:33;13.00;74.90
43541;DHT22;29549;40.386;-3.710;2024-01-25T20:15:36;13.00;74.50
43541;DHT22;29549;40.386;-3.710;2024-01-25T20:25:37;12.80;74.60
43541;DHT22;29549;40.386;-3.710;2024-01-25T20:35:39;12.70;74.80
43541;DHT22;29549;40.386;-3.710;2024-01-25T20:45:42;12.50;75.10
43541;DHT22;29549;40.386;-3.710;2024-01-25T20:55:44;12.30;75.30
43541;DHT22;29549;40.386;-3.710;2024-01-25T21:05:46;12.20;75.40
43541;DHT22;29549;40.386;-3.710;2024-01-25T21:15:49;12.10;75.70
43541;DHT22;29549;40.386;-3.710;2024-01-25T21:25:51;11.90;76.00
43541;DHT22;29549;40.386;-3.710;2024-01-25T21:35:52;11.80;76.20
43541;DHT22;29549;40.386;-3.710;2024-01-25T21:45:55;11.70;76.50
43541;DHT22;29549;40.386;-3.710;2024-01-25T21:55:57;11.70;76.60
43541;DHT22;29549;40.386;-3.710;2024-01-25T22:05:59;11.60;76.70
43541;DHT22;29549;40.386;-3.710;2024-01-25T22:16:00;11.50;77.00
43541;DHT22;29549;40.386;-3.710;2024-01-25T22:26:01;11.30;77.10
43541;DHT22;29549;40.386;-3.710;2024-01-25T22:36:05;11.20;77.20
43541;DHT22;29549;40.386;-3.710;2024-01-25T22:46:08;11.00;77.40
43541;DHT22;29549;40.386;-3.710;2024-01-25T22:56:09;10.90;77.50
43541;DHT22;29549;40.386;-3.710;2024-01-25T23:06:10;10.80;77.60
43541;DHT22;29549;40.386;-3.710;2024-01-25T23:16:12;10.70;77.70
43541;DHT22;29549;40.386;-3.710;2024-01-25T23:26:13;10.60;77.80
43541;DHT22;29549;40.386;-3.710;2024-01-25T23:36:14;10.50;77.90
43541;DHT22;29549;40.386;-3.710;2024-01-25T23:46:18;10.50;77.90
43541;DHT22;29549;40.386;-3.710;2024-01-25T23:56:19;10.30;78.00
